createdAt,value
2018-05-24T00:00:06.347Z,14.71
2018-05-24T00:01:06.273Z,14.69
2018-05-24T00:02:06.202Z,14.59
2018-05-24T00:03:06.127Z,14.71
2018-05-24T00:04:06.055Z,14.60
2018-05-24T00:05:05.982Z,14.59
2018-05-24T00:06:05.910Z,14.57
2018-05-24T00:07:05.835Z,14.71
2018-05-24T00:08:05.766Z,14.69
2018-05-24T00:09:05.688Z,14.71
2018-05-24T00:10:05.614Z,14.80
2018-05-24T00:11:05.541Z,14.75
2018-05-24T00:12:05.469Z,14.74
2018-05-24T00:13:05.395Z,14.72
2018-05-24T00:14:05.328Z,14.79
2018-05-24T00:15:05.250Z,14.74
2018-05-24T00:16:05.177Z,14.74
2018-05-24T00:17:05.102Z,14.74
2018-05-24T00:18:05.029Z,14.72
2018-05-24T00:19:04.956Z,14.78
2018-05-24T00:20:04.883Z,14.74
2018-05-24T00:21:04.811Z,14.79
2018-05-24T00:22:04.736Z,14.79
2018-05-24T00:23:04.663Z,14.79
2018-05-24T00:24:04.590Z,14.75
2018-05-24T00:25:04.517Z,14.87
2018-05-24T00:26:04.444Z,14.83
2018-05-24T00:27:04.369Z,14.87
2018-05-24T00:28:04.296Z,14.90
2018-05-24T00:29:04.224Z,14.83
2018-05-24T00:30:04.149Z,14.83
2018-05-24T00:31:04.078Z,14.83
2018-05-24T00:32:04.003Z,14.90
2018-05-24T00:33:03.932Z,14.87
2018-05-24T00:34:03.857Z,14.85
2018-05-24T00:35:03.784Z,14.80
2018-05-24T00:36:03.710Z,14.78
2018-05-24T00:37:03.641Z,14.75
2018-05-24T00:38:03.564Z,14.80
2018-05-24T00:39:03.490Z,14.79
2018-05-24T00:40:03.420Z,14.68
2018-05-24T00:41:03.345Z,14.57
2018-05-24T00:42:03.271Z,14.60
2018-05-24T00:43:03.201Z,14.59
2018-05-24T00:44:03.125Z,14.61
2018-05-24T00:45:03.052Z,14.57
2018-05-24T00:46:02.983Z,14.57
2018-05-24T00:47:02.905Z,14.59
2018-05-24T00:48:02.835Z,14.56
2018-05-24T00:49:02.760Z,14.53
2018-05-24T00:50:02.687Z,14.44
2018-05-24T00:51:02.617Z,14.46
2018-05-24T00:52:02.542Z,14.53
2018-05-24T00:53:02.466Z,14.47
2018-05-24T00:54:02.392Z,14.54
2018-05-24T00:55:02.319Z,14.39
2018-05-24T00:56:02.245Z,14.35
2018-05-24T00:57:02.176Z,14.35
2018-05-24T00:58:02.100Z,14.36
2018-05-24T00:59:02.025Z,14.27
2018-05-24T01:00:01.952Z,14.32
2018-05-24T01:01:01.880Z,14.32
2018-05-24T01:02:01.808Z,14.35
2018-05-24T01:03:01.734Z,14.36
2018-05-24T01:04:01.659Z,14.38
2018-05-24T01:05:01.586Z,14.34
2018-05-24T01:06:01.513Z,14.32
2018-05-24T01:07:01.437Z,14.23
2018-05-24T01:08:01.366Z,14.21
2018-05-24T01:09:01.291Z,14.27
2018-05-24T01:10:01.221Z,14.20
2018-05-24T01:11:01.144Z,14.20
2018-05-24T01:12:01.072Z,14.21
2018-05-24T01:13:00.998Z,14.21
2018-05-24T01:14:00.929Z,14.19
2018-05-24T01:15:00.850Z,14.31
2018-05-24T01:16:00.778Z,14.29
2018-05-24T01:17:00.704Z,14.17
2018-05-24T01:18:00.630Z,14.27
2018-05-24T01:19:00.557Z,14.24
2018-05-24T01:20:00.484Z,14.16
2018-05-24T01:21:00.410Z,14.19
2018-05-24T01:22:00.336Z,14.13
2018-05-24T01:23:00.268Z,14.09
2018-05-24T01:24:00.198Z,14.03
2018-05-24T01:25:00.122Z,14.09
2018-05-24T01:26:00.043Z,14.07
2018-05-24T01:26:59.969Z,14.05
2018-05-24T01:27:59.895Z,14.10
2018-05-24T01:28:59.822Z,13.95
2018-05-24T01:29:59.748Z,14.05
2018-05-24T01:30:59.674Z,13.96
2018-05-24T01:31:59.601Z,13.94
2018-05-24T01:32:59.528Z,13.94
2018-05-24T01:33:59.454Z,13.87
2018-05-24T01:34:59.379Z,13.86
2018-05-24T01:35:59.305Z,13.87
2018-05-24T01:36:59.233Z,13.78
2018-05-24T01:37:59.158Z,13.68
2018-05-24T01:38:59.086Z,13.73
2018-05-24T01:39:59.011Z,13.73
2018-05-24T01:40:58.936Z,13.74
2018-05-24T01:41:58.863Z,13.68
2018-05-24T01:42:58.789Z,13.73
2018-05-24T01:43:59.065Z,13.73
2018-05-24T01:44:58.642Z,13.77
2018-05-24T01:45:58.567Z,13.71
2018-05-24T01:46:58.494Z,13.71
2018-05-24T01:47:58.420Z,13.73
2018-05-24T01:48:58.346Z,13.68
2018-05-24T01:49:58.273Z,13.68
2018-05-24T01:50:58.199Z,13.71
2018-05-24T01:51:58.125Z,13.59
2018-05-24T01:52:58.057Z,13.68
2018-05-24T01:53:57.978Z,13.74
2018-05-24T01:54:57.903Z,13.71
2018-05-24T01:55:57.830Z,13.74
2018-05-24T01:56:57.756Z,13.81
2018-05-24T01:57:57.681Z,13.81
2018-05-24T01:58:57.612Z,13.83
2018-05-24T01:59:57.534Z,13.80
2018-05-24T02:00:57.460Z,13.81
2018-05-24T02:01:57.385Z,13.84
2018-05-24T02:02:57.311Z,13.81
2018-05-24T02:03:57.239Z,13.80
2018-05-24T02:04:57.164Z,13.83
2018-05-24T02:05:57.091Z,13.84
2018-05-24T02:06:57.016Z,13.81
2018-05-24T02:07:56.947Z,13.92
2018-05-24T02:08:56.869Z,13.92
2018-05-24T02:09:56.797Z,13.98
2018-05-24T02:10:56.721Z,13.96
2018-05-24T02:11:56.648Z,14.02
2018-05-24T02:12:56.575Z,14.13
2018-05-24T02:13:56.500Z,14.10
2018-05-24T02:14:56.429Z,14.31
2018-05-24T02:15:56.357Z,14.21
2018-05-24T02:16:56.285Z,14.19
2018-05-24T02:17:56.206Z,14.16
2018-05-24T02:18:56.132Z,14.13
2018-05-24T02:19:56.058Z,14.10
2018-05-24T02:20:55.985Z,14.10
2018-05-24T02:21:55.918Z,14.11
2018-05-24T02:22:55.836Z,14.11
2018-05-24T02:23:55.768Z,14.17
2018-05-24T02:24:55.690Z,14.14
2018-05-24T02:25:55.615Z,14.11
2018-05-24T02:26:55.542Z,14.09
2018-05-24T02:27:55.469Z,14.16
2018-05-24T02:28:55.449Z,14.23
2018-05-24T02:29:55.323Z,14.23
2018-05-24T02:30:55.249Z,14.21
2018-05-24T02:31:55.175Z,14.27
2018-05-24T02:32:55.101Z,14.24
2018-05-24T02:33:55.027Z,14.32
2018-05-24T02:34:54.953Z,14.35
2018-05-24T02:35:55.110Z,14.35
2018-05-24T02:36:54.808Z,14.36
2018-05-24T02:37:54.734Z,14.36
2018-05-24T02:38:54.659Z,14.42
2018-05-24T02:39:54.590Z,14.32
2018-05-24T02:40:54.514Z,14.35
2018-05-24T02:41:54.443Z,14.34
2018-05-24T02:42:54.366Z,14.35
2018-05-24T02:43:54.293Z,14.31
2018-05-24T02:44:54.220Z,14.32
2018-05-24T02:45:54.148Z,14.34
2018-05-24T02:46:54.071Z,14.36
2018-05-24T02:47:53.999Z,14.35
2018-05-24T02:48:53.926Z,14.39
2018-05-24T02:49:53.853Z,14.31
2018-05-24T02:50:53.781Z,14.32
2018-05-24T02:51:53.705Z,14.41
2018-05-24T02:52:53.633Z,14.32
2018-05-24T02:53:53.564Z,14.36
2018-05-24T02:54:53.488Z,14.34
2018-05-24T02:55:53.411Z,14.34
2018-05-24T02:56:53.338Z,14.41
2018-05-24T02:57:53.265Z,14.34
2018-05-24T02:58:53.191Z,14.38
2018-05-24T02:59:53.119Z,14.34
2018-05-24T03:00:53.045Z,14.38
2018-05-24T03:01:52.971Z,14.38
2018-05-24T03:02:52.897Z,14.34
2018-05-24T03:03:52.824Z,14.35
2018-05-24T03:04:52.750Z,14.35
2018-05-24T03:05:52.677Z,14.35
2018-05-24T03:06:52.602Z,14.35
2018-05-24T03:07:52.530Z,14.38
2018-05-24T03:08:52.457Z,14.35
2018-05-24T03:09:52.384Z,14.32
2018-05-24T03:10:52.310Z,14.42
2018-05-24T03:11:52.236Z,14.29
2018-05-24T03:12:52.163Z,14.39
2018-05-24T03:13:52.091Z,14.38
2018-05-24T03:14:52.016Z,14.35
2018-05-24T03:15:51.942Z,14.35
2018-05-24T03:16:51.870Z,14.38
2018-05-24T03:17:51.797Z,14.42
2018-05-24T03:18:51.721Z,14.50
2018-05-24T03:19:51.652Z,14.39
2018-05-24T03:20:51.575Z,14.39
2018-05-24T03:21:51.503Z,14.52
2018-05-24T03:22:51.429Z,14.41
2018-05-24T03:23:51.359Z,14.42
2018-05-24T03:24:51.282Z,14.39
2018-05-24T03:25:51.209Z,14.47
2018-05-24T03:26:51.137Z,14.46
2018-05-24T03:27:51.062Z,14.47
2018-05-24T03:28:50.988Z,14.46
2018-05-24T03:29:50.915Z,14.39
2018-05-24T03:30:50.845Z,14.39
2018-05-24T03:31:50.770Z,14.41
2018-05-24T03:32:50.698Z,14.39
2018-05-24T03:33:50.623Z,14.36
2018-05-24T03:34:50.547Z,14.34
2018-05-24T03:35:50.475Z,14.54
2018-05-24T03:36:50.402Z,14.46
2018-05-24T03:37:50.327Z,14.35
2018-05-24T03:38:50.254Z,14.42
2018-05-24T03:39:50.181Z,14.49
2018-05-24T03:40:50.109Z,14.46
2018-05-24T03:41:50.039Z,14.46
2018-05-24T03:42:49.960Z,14.59
2018-05-24T03:43:49.886Z,14.47
2018-05-24T03:44:49.814Z,14.42
2018-05-24T03:45:49.740Z,14.49
2018-05-24T03:46:49.667Z,14.49
2018-05-24T03:47:49.594Z,14.47
2018-05-24T03:48:49.519Z,14.52
2018-05-24T03:49:49.447Z,14.60
2018-05-24T03:50:49.373Z,14.56
2018-05-24T03:51:49.300Z,14.60
2018-05-24T03:52:49.227Z,14.59
2018-05-24T03:53:49.153Z,14.56
2018-05-24T03:54:49.078Z,14.54
2018-05-24T03:55:49.005Z,14.64
2018-05-24T03:56:48.933Z,14.53
2018-05-24T03:57:48.971Z,14.59
2018-05-24T03:58:48.785Z,14.54
2018-05-24T03:59:48.713Z,14.59
2018-05-24T04:00:48.640Z,14.59
2018-05-24T04:01:48.567Z,14.68
2018-05-24T04:02:48.494Z,14.72
2018-05-24T04:03:48.420Z,14.69
2018-05-24T04:04:48.347Z,14.68
2018-05-24T04:05:48.341Z,14.78
2018-05-24T04:06:48.199Z,14.69
2018-05-24T04:07:48.126Z,14.74
2018-05-24T04:08:48.054Z,14.78
2018-05-24T04:09:47.981Z,14.72
2018-05-24T04:10:47.907Z,14.75
2018-05-24T04:11:47.833Z,14.78
2018-05-24T04:12:47.759Z,14.72
2018-05-24T04:13:47.687Z,14.83
2018-05-24T04:14:47.613Z,14.78
2018-05-24T04:15:47.540Z,14.75
2018-05-24T04:16:47.467Z,14.79
2018-05-24T04:17:47.395Z,14.85
2018-05-24T04:18:47.322Z,14.87
2018-05-24T04:19:47.249Z,14.83
2018-05-24T04:20:47.176Z,14.87
2018-05-24T04:21:47.103Z,14.80
2018-05-24T04:22:47.028Z,14.87
2018-05-24T04:23:46.955Z,14.95
2018-05-24T04:24:46.949Z,14.90
2018-05-24T04:25:46.810Z,14.88
2018-05-24T04:26:46.738Z,14.97
2018-05-24T04:27:46.666Z,14.91
2018-05-24T04:28:46.592Z,14.94
2018-05-24T04:29:46.521Z,15.01
2018-05-24T04:30:46.446Z,14.93
2018-05-24T04:31:46.373Z,15.01
2018-05-24T04:32:46.299Z,14.88
2018-05-24T04:33:46.227Z,14.87
2018-05-24T04:34:46.154Z,14.95
2018-05-24T04:35:46.079Z,14.95
2018-05-24T04:36:46.009Z,14.88
2018-05-24T04:37:45.936Z,14.90
2018-05-24T04:38:45.861Z,14.97
2018-05-24T04:39:45.791Z,14.85
2018-05-24T04:40:45.715Z,14.93
2018-05-24T04:41:45.642Z,14.80
2018-05-24T04:42:45.572Z,14.87
2018-05-24T04:43:45.497Z,14.88
2018-05-24T04:44:45.424Z,14.84
2018-05-24T04:45:45.351Z,14.91
2018-05-24T04:46:45.282Z,14.83
2018-05-24T04:47:45.205Z,14.87
2018-05-24T04:48:45.131Z,14.83
2018-05-24T04:49:45.060Z,14.78
2018-05-24T04:50:44.985Z,14.80
2018-05-24T04:51:44.912Z,14.79
2018-05-24T04:52:44.841Z,14.80
2018-05-24T04:53:44.768Z,14.80
2018-05-24T04:54:44.697Z,14.80
2018-05-24T04:55:44.620Z,14.91
2018-05-24T04:56:44.547Z,14.85
2018-05-24T04:57:44.475Z,14.83
2018-05-24T04:58:44.401Z,14.88
2018-05-24T04:59:44.328Z,14.87
2018-05-24T05:00:44.256Z,14.84
2018-05-24T05:01:44.289Z,14.91
2018-05-24T05:02:44.115Z,14.85
2018-05-24T05:03:44.036Z,14.84
2018-05-24T05:04:43.965Z,14.90
2018-05-24T05:05:43.890Z,14.91
2018-05-24T05:06:43.817Z,14.88
2018-05-24T05:07:43.746Z,14.83
2018-05-24T05:08:43.672Z,14.80
2018-05-24T05:09:43.598Z,14.93
2018-05-24T05:10:43.525Z,15.01
2018-05-24T05:11:43.451Z,14.98
2018-05-24T05:12:43.379Z,15.01
2018-05-24T05:13:43.305Z,15.03
2018-05-24T05:14:43.331Z,15.08
2018-05-24T05:15:43.160Z,15.08
2018-05-24T05:16:43.087Z,15.16
2018-05-24T05:17:43.015Z,15.13
2018-05-24T05:18:42.942Z,15.27
2018-05-24T05:19:42.868Z,15.23
2018-05-24T05:20:42.798Z,15.35
2018-05-24T05:21:42.722Z,15.31
2018-05-24T05:22:42.649Z,15.41
2018-05-24T05:23:42.579Z,15.28
2018-05-24T05:24:42.505Z,15.45
2018-05-24T05:25:42.437Z,15.34
2018-05-24T05:26:42.359Z,15.41
2018-05-24T05:27:42.285Z,15.39
2018-05-24T05:28:42.220Z,15.48
2018-05-24T05:29:42.142Z,15.49
2018-05-24T05:30:42.282Z,15.67
2018-05-24T05:31:41.996Z,15.66
2018-05-24T05:32:41.923Z,15.68
2018-05-24T05:33:41.854Z,15.73
2018-05-24T05:34:41.779Z,15.70
2018-05-24T05:35:41.857Z,15.83
2018-05-24T05:36:41.633Z,15.83
2018-05-24T05:37:41.571Z,15.91
2018-05-24T05:38:41.488Z,15.88
2018-05-24T05:39:41.416Z,15.83
2018-05-24T05:40:41.343Z,16.03
2018-05-24T05:41:41.272Z,15.96
2018-05-24T05:42:41.199Z,16.06
2018-05-24T05:43:41.128Z,16.03
2018-05-24T05:44:41.076Z,16.08
2018-05-24T05:45:40.981Z,16.10
2018-05-24T05:46:40.914Z,16.22
2018-05-24T05:47:40.838Z,16.20
2018-05-24T05:48:40.766Z,16.16
2018-05-24T05:49:40.696Z,16.20
2018-05-24T05:50:40.621Z,16.26
2018-05-24T05:51:40.550Z,16.08
2018-05-24T05:52:40.478Z,16.08
2018-05-24T05:53:40.409Z,16.15
2018-05-24T05:54:40.333Z,16.00
2018-05-24T05:55:40.261Z,16.03
2018-05-24T05:56:40.191Z,16.08
2018-05-24T05:57:40.119Z,16.10
2018-05-24T05:58:40.046Z,16.20
2018-05-24T05:59:39.972Z,16.33
2018-05-24T06:00:39.903Z,16.20
2018-05-24T06:01:39.857Z,16.15
2018-05-24T06:02:39.757Z,16.23
2018-05-24T06:03:39.686Z,16.20
2018-05-24T06:04:39.616Z,16.30
2018-05-24T06:05:39.542Z,16.27
2018-05-24T06:06:39.469Z,16.34
2018-05-24T06:07:39.397Z,16.30
2018-05-24T06:08:39.329Z,16.29
2018-05-24T06:09:39.319Z,16.37
2018-05-24T06:10:39.180Z,16.35
2018-05-24T06:11:39.109Z,16.35
2018-05-24T06:12:39.037Z,16.57
2018-05-24T06:13:38.965Z,16.57
2018-05-24T06:14:38.891Z,16.62
2018-05-24T06:15:38.824Z,16.63
2018-05-24T06:16:38.748Z,16.75
2018-05-24T06:17:38.678Z,16.77
2018-05-24T06:18:38.605Z,16.81
2018-05-24T06:19:38.532Z,16.85
2018-05-24T06:20:38.461Z,16.95
2018-05-24T06:21:38.488Z,16.90
2018-05-24T06:22:38.316Z,16.93
2018-05-24T06:23:38.320Z,17.02
2018-05-24T06:24:38.173Z,17.05
2018-05-24T06:25:38.101Z,17.07
2018-05-24T06:26:38.030Z,17.08
2018-05-24T06:27:37.958Z,17.13
2018-05-24T06:28:37.887Z,17.03
2018-05-24T06:29:37.818Z,17.10
2018-05-24T06:30:37.743Z,17.05
2018-05-24T06:31:37.672Z,17.11
2018-05-24T06:32:37.600Z,17.00
2018-05-24T06:33:37.533Z,17.05
2018-05-24T06:34:37.460Z,17.11
2018-05-24T06:35:37.384Z,17.15
2018-05-24T06:36:37.314Z,17.10
2018-05-24T06:37:37.243Z,17.11
2018-05-24T06:38:37.174Z,17.05
2018-05-24T06:39:37.099Z,17.07
2018-05-24T06:40:37.113Z,17.07
2018-05-24T06:41:36.955Z,17.08
2018-05-24T06:42:36.883Z,17.08
2018-05-24T06:43:36.821Z,17.15
2018-05-24T06:44:36.739Z,17.14
2018-05-24T06:45:36.673Z,17.08
2018-05-24T06:46:36.683Z,17.08
2018-05-24T06:47:36.529Z,17.13
2018-05-24T06:48:36.455Z,17.17
2018-05-24T06:49:36.382Z,17.05
2018-05-24T06:50:36.310Z,17.13
2018-05-24T06:51:36.238Z,17.21
2018-05-24T06:52:36.168Z,17.18
2018-05-24T06:53:36.098Z,17.17
2018-05-24T06:54:36.025Z,17.15
2018-05-24T06:55:35.953Z,17.14
2018-05-24T06:56:35.882Z,17.18
2018-05-24T06:57:35.810Z,17.20
2018-05-24T06:58:35.739Z,17.25
2018-05-24T06:59:35.666Z,17.17
2018-05-24T07:00:35.596Z,17.17
2018-05-24T07:01:35.524Z,17.21
2018-05-24T07:02:35.454Z,17.26
2018-05-24T07:03:35.381Z,17.26
2018-05-24T07:04:35.312Z,17.28
2018-05-24T07:05:35.240Z,17.26
2018-05-24T07:06:35.169Z,17.35
2018-05-24T07:07:35.096Z,17.43
2018-05-24T07:08:35.026Z,17.40
2018-05-24T07:09:34.956Z,17.39
2018-05-24T07:10:34.883Z,17.38
2018-05-24T07:11:34.812Z,17.43
2018-05-24T07:12:34.742Z,17.38
2018-05-24T07:13:34.671Z,17.43
2018-05-24T07:14:34.598Z,17.33
2018-05-24T07:15:34.529Z,17.25
2018-05-24T07:16:34.456Z,17.26
2018-05-24T07:17:34.386Z,17.29
2018-05-24T07:18:34.321Z,17.21
2018-05-24T07:19:34.243Z,17.21
2018-05-24T07:20:34.176Z,17.23
2018-05-24T07:21:34.101Z,17.30
2018-05-24T07:22:34.029Z,17.36
2018-05-24T07:23:33.959Z,17.40
2018-05-24T07:24:33.916Z,17.46
2018-05-24T07:25:33.817Z,17.44
2018-05-24T07:26:33.744Z,17.50
2018-05-24T07:27:33.673Z,17.44
2018-05-24T07:28:33.601Z,17.51
2018-05-24T07:29:33.531Z,17.60
2018-05-24T07:30:33.459Z,17.63
2018-05-24T07:31:33.389Z,17.74
2018-05-24T07:32:33.316Z,17.57
2018-05-24T07:33:33.245Z,17.58
2018-05-24T07:34:33.174Z,17.58
2018-05-24T07:35:33.103Z,17.57
2018-05-24T07:36:33.032Z,17.73
2018-05-24T07:37:32.964Z,17.69
2018-05-24T07:38:32.890Z,17.67
2018-05-24T07:39:32.820Z,17.67
2018-05-24T07:40:32.752Z,17.70
2018-05-24T07:41:32.676Z,17.73
2018-05-24T07:42:32.605Z,17.79
2018-05-24T07:43:32.539Z,17.71
2018-05-24T07:44:32.468Z,17.71
2018-05-24T07:45:32.392Z,17.87
2018-05-24T07:46:32.321Z,17.88
2018-05-24T07:47:32.250Z,17.94
2018-05-24T07:48:32.184Z,17.96
2018-05-24T07:49:32.113Z,18.00
2018-05-24T07:50:32.037Z,17.98
2018-05-24T07:51:31.967Z,18.10
2018-05-24T07:52:31.895Z,18.06
2018-05-24T07:53:31.826Z,18.21
2018-05-24T07:54:31.753Z,18.22
2018-05-24T07:55:31.682Z,18.18
2018-05-24T07:56:31.611Z,18.28
2018-05-24T07:57:31.542Z,18.32
2018-05-24T07:58:31.471Z,18.46
2018-05-24T07:59:31.400Z,18.43
2018-05-24T08:00:31.334Z,18.50
2018-05-24T08:01:31.264Z,18.57
2018-05-24T08:02:31.188Z,18.62
2018-05-24T08:03:31.118Z,18.69
2018-05-24T08:04:31.047Z,18.76
2018-05-24T08:05:30.977Z,18.79
2018-05-24T08:06:30.906Z,18.84
2018-05-24T08:07:30.836Z,19.02
2018-05-24T08:08:30.768Z,19.15
2018-05-24T08:09:30.697Z,19.21
2018-05-24T08:10:30.625Z,19.33
2018-05-24T08:11:30.555Z,19.35
2018-05-24T08:12:30.485Z,19.21
2018-05-24T08:13:30.415Z,19.28
2018-05-24T08:14:30.344Z,19.33
2018-05-24T08:15:30.275Z,19.39
2018-05-24T08:16:30.208Z,19.50
2018-05-24T08:17:30.135Z,19.57
2018-05-24T08:18:30.064Z,19.68
2018-05-24T08:19:29.995Z,19.68
2018-05-24T08:20:29.925Z,19.68
2018-05-24T08:21:29.860Z,19.72
2018-05-24T08:22:29.803Z,19.60
2018-05-24T08:23:29.715Z,19.73
2018-05-24T08:24:29.645Z,19.78
2018-05-24T08:25:29.581Z,19.78
2018-05-24T08:26:29.512Z,19.78
2018-05-24T08:27:29.436Z,19.76
2018-05-24T08:28:29.367Z,19.78
2018-05-24T08:29:29.300Z,19.91
2018-05-24T08:30:29.227Z,19.90
2018-05-24T08:31:29.158Z,19.94
2018-05-24T08:32:29.089Z,19.76
2018-05-24T08:33:29.023Z,19.73
2018-05-24T08:34:28.950Z,19.83
2018-05-24T08:35:28.880Z,19.93
2018-05-24T08:36:28.811Z,19.98
2018-05-24T08:37:28.743Z,20.09
2018-05-24T08:38:28.671Z,20.06
2018-05-24T08:39:28.603Z,20.06
2018-05-24T08:40:28.534Z,20.06
2018-05-24T08:41:28.463Z,20.09
2018-05-24T08:42:28.395Z,20.15
2018-05-24T08:43:28.331Z,20.16
2018-05-24T08:44:28.255Z,20.31
2018-05-24T08:45:28.186Z,20.24
2018-05-24T08:46:28.117Z,20.31
2018-05-24T08:47:28.138Z,20.54
2018-05-24T08:48:27.978Z,20.68
2018-05-24T08:49:27.909Z,20.65
2018-05-24T08:50:27.839Z,20.65
2018-05-24T08:51:27.769Z,20.69
2018-05-24T08:52:27.701Z,20.59
2018-05-24T08:53:27.697Z,20.51
2018-05-24T08:54:27.563Z,20.46
2018-05-24T08:55:27.493Z,20.50
2018-05-24T08:56:27.426Z,20.62
2018-05-24T08:57:27.356Z,20.79
2018-05-24T08:58:27.286Z,20.82
2018-05-24T08:59:27.217Z,20.89
2018-05-24T09:00:27.149Z,20.82
2018-05-24T09:01:27.204Z,20.76
2018-05-24T09:02:27.010Z,20.89
2018-05-24T09:03:26.942Z,20.90
2018-05-24T09:04:26.873Z,20.93
2018-05-24T09:05:26.805Z,20.87
2018-05-24T09:06:26.736Z,21.04
2018-05-24T09:07:26.667Z,21.21
2018-05-24T09:08:26.597Z,21.27
2018-05-24T09:09:26.530Z,21.11
2018-05-24T09:10:26.461Z,20.86
2018-05-24T09:11:26.392Z,20.80
2018-05-24T09:12:26.325Z,20.83
2018-05-24T09:13:26.254Z,20.98
2018-05-24T09:14:26.186Z,20.94
2018-05-24T09:15:26.117Z,20.96
2018-05-24T09:16:26.093Z,21.05
2018-05-24T09:17:25.981Z,21.16
2018-05-24T09:18:25.911Z,21.26
2018-05-24T09:19:25.845Z,21.39
2018-05-24T09:20:25.775Z,21.54
2018-05-24T09:21:25.706Z,21.59
2018-05-24T09:22:25.640Z,21.31
2018-05-24T09:23:25.569Z,21.31
2018-05-24T09:24:25.500Z,21.27
2018-05-24T09:25:25.431Z,21.21
2018-05-24T09:26:25.364Z,21.09
2018-05-24T09:27:25.297Z,21.02
2018-05-24T09:28:25.227Z,21.14
2018-05-24T09:29:25.206Z,21.21
2018-05-24T09:30:25.090Z,21.26
2018-05-24T09:31:25.021Z,21.20
2018-05-24T09:32:24.954Z,21.01
2018-05-24T09:33:24.884Z,21.17
2018-05-24T09:34:24.815Z,21.12
2018-05-24T09:35:24.748Z,21.23
2018-05-24T09:36:24.769Z,21.12
2018-05-24T09:37:24.612Z,21.20
2018-05-24T09:38:24.545Z,21.31
2018-05-24T09:39:24.475Z,21.23
2018-05-24T09:40:24.405Z,21.31
2018-05-24T09:41:24.338Z,21.30
2018-05-24T09:42:24.269Z,21.24
2018-05-24T09:43:24.201Z,21.38
2018-05-24T09:44:24.132Z,21.31
2018-05-24T09:45:24.065Z,21.38
2018-05-24T09:46:23.995Z,21.60
2018-05-24T09:47:23.930Z,21.72
2018-05-24T09:48:23.860Z,21.66
2018-05-24T09:49:23.792Z,21.61
2018-05-24T09:50:23.723Z,21.56
2018-05-24T09:51:23.656Z,21.56
2018-05-24T09:52:23.587Z,21.41
2018-05-24T09:53:23.520Z,21.17
2018-05-24T09:54:23.450Z,21.17
2018-05-24T09:55:23.449Z,21.17
2018-05-24T09:56:23.314Z,21.16
2018-05-24T09:57:23.246Z,21.11
2018-05-24T09:58:23.178Z,21.09
2018-05-24T09:59:23.110Z,21.01
2018-05-24T10:00:23.042Z,21.14
2018-05-24T10:01:22.974Z,21.23
2018-05-24T10:02:22.905Z,21.17
2018-05-24T10:03:22.837Z,21.36
2018-05-24T10:04:22.769Z,21.48
2018-05-24T10:05:22.701Z,21.70
2018-05-24T10:06:22.632Z,21.66
2018-05-24T10:07:22.566Z,21.49
2018-05-24T10:08:22.505Z,21.64
2018-05-24T10:09:22.429Z,21.70
2018-05-24T10:10:22.360Z,21.26
2018-05-24T10:11:22.296Z,21.19
2018-05-24T10:12:22.223Z,21.14
2018-05-24T10:13:22.156Z,20.94
2018-05-24T10:14:22.090Z,21.08
2018-05-24T10:15:22.018Z,21.35
2018-05-24T10:16:22.005Z,21.39
2018-05-24T10:17:21.886Z,21.57
2018-05-24T10:18:21.814Z,21.61
2018-05-24T10:19:21.746Z,21.82
2018-05-24T10:20:21.678Z,21.89
2018-05-24T10:21:21.609Z,22.02
2018-05-24T10:22:21.541Z,21.89
2018-05-24T10:23:21.474Z,21.86
2018-05-24T10:24:21.405Z,21.81
2018-05-24T10:25:21.337Z,22.00
2018-05-24T10:26:21.268Z,22.07
2018-05-24T10:27:21.200Z,22.22
2018-05-24T10:28:21.133Z,22.30
2018-05-24T10:29:21.145Z,22.30
2018-05-24T10:30:20.995Z,22.26
2018-05-24T10:31:20.929Z,22.20
2018-05-24T10:32:20.861Z,22.17
2018-05-24T10:33:20.794Z,22.31
2018-05-24T10:34:20.724Z,22.22
2018-05-24T10:35:20.658Z,22.31
2018-05-24T10:36:20.590Z,22.17
2018-05-24T10:37:20.522Z,22.23
2018-05-24T10:38:20.454Z,22.32
2018-05-24T10:39:20.394Z,22.32
2018-05-24T10:40:20.318Z,22.35
2018-05-24T10:41:20.252Z,22.16
2018-05-24T10:42:20.183Z,21.95
2018-05-24T10:43:20.117Z,21.75
2018-05-24T10:44:20.047Z,21.85
2018-05-24T10:45:19.980Z,21.85
2018-05-24T10:46:19.911Z,21.95
2018-05-24T10:47:19.843Z,22.17
2018-05-24T10:48:19.776Z,22.42
2018-05-24T10:49:19.709Z,22.65
2018-05-24T10:50:19.639Z,22.52
2018-05-24T10:51:19.586Z,22.38
2018-05-24T10:52:19.506Z,22.38
2018-05-24T10:53:19.438Z,22.17
2018-05-24T10:54:19.369Z,22.07
2018-05-24T10:55:19.377Z,21.97
2018-05-24T10:56:19.235Z,21.94
2018-05-24T10:57:19.168Z,21.70
2018-05-24T10:58:19.097Z,21.75
2018-05-24T10:59:19.030Z,21.60
2018-05-24T11:00:18.961Z,21.56
2018-05-24T11:01:18.892Z,21.54
2018-05-24T11:02:18.826Z,21.44
2018-05-24T11:03:18.810Z,21.42
2018-05-24T11:04:18.689Z,21.39
2018-05-24T11:05:18.622Z,21.41
2018-05-24T11:06:18.588Z,21.45
2018-05-24T11:07:18.491Z,21.36
2018-05-24T11:08:18.416Z,21.24
2018-05-24T11:09:18.349Z,21.23
2018-05-24T11:10:18.279Z,21.12
2018-05-24T11:11:18.211Z,20.96
2018-05-24T11:12:18.143Z,21.08
2018-05-24T11:13:18.076Z,20.94
2018-05-24T11:14:18.008Z,20.99
2018-05-24T11:15:17.937Z,20.98
2018-05-24T11:16:17.869Z,20.91
2018-05-24T11:17:17.803Z,20.98
2018-05-24T11:18:17.731Z,21.01
2018-05-24T11:19:17.662Z,20.90
2018-05-24T11:20:17.592Z,20.86
2018-05-24T11:21:17.525Z,20.86
2018-05-24T11:22:17.455Z,20.74
2018-05-24T11:23:17.387Z,20.72
2018-05-24T11:24:17.317Z,20.68
2018-05-24T11:25:17.397Z,20.61
2018-05-24T11:26:17.179Z,20.61
2018-05-24T11:27:17.113Z,20.49
2018-05-24T11:28:17.041Z,20.42
2018-05-24T11:29:16.973Z,20.40
2018-05-24T11:30:16.903Z,20.42
2018-05-24T11:31:16.833Z,20.40
2018-05-24T11:32:16.764Z,20.30
2018-05-24T11:33:16.695Z,20.24
2018-05-24T11:34:16.624Z,20.31
2018-05-24T11:35:16.557Z,20.27
2018-05-24T11:36:16.545Z,20.16
2018-05-24T11:37:16.443Z,20.19
2018-05-24T11:38:16.346Z,20.10
2018-05-24T11:39:16.277Z,20.06
2018-05-24T11:40:16.210Z,19.97
2018-05-24T11:41:16.138Z,20.01
2018-05-24T11:42:16.070Z,20.12
2018-05-24T11:43:16.180Z,20.06
2018-05-24T11:44:15.929Z,20.01
2018-05-24T11:45:15.858Z,19.98
2018-05-24T11:46:15.787Z,19.95
2018-05-24T11:47:15.720Z,19.97
2018-05-24T11:48:15.648Z,19.94
2018-05-24T11:49:15.578Z,20.05
2018-05-24T11:50:15.514Z,19.95
2018-05-24T11:51:15.438Z,20.00
2018-05-24T11:52:15.369Z,19.95
2018-05-24T11:53:15.300Z,19.90
2018-05-24T11:54:15.228Z,19.80
2018-05-24T11:55:15.160Z,19.75
2018-05-24T11:56:15.090Z,19.75
2018-05-24T11:57:15.020Z,19.83
2018-05-24T11:58:14.948Z,19.88
2018-05-24T11:59:14.879Z,19.76
2018-05-24T12:00:14.812Z,19.65
2018-05-24T12:01:14.740Z,19.57
2018-05-24T12:02:14.669Z,19.64
2018-05-24T12:03:14.600Z,19.63
2018-05-24T12:04:14.532Z,19.60
2018-05-24T12:05:14.461Z,19.50
2018-05-24T12:06:14.392Z,19.54
2018-05-24T12:07:14.321Z,19.50
2018-05-24T12:08:14.252Z,19.50
2018-05-24T12:09:14.181Z,19.45
2018-05-24T12:10:14.111Z,19.50
2018-05-24T12:11:14.039Z,19.35
2018-05-24T12:12:13.970Z,19.43
2018-05-24T12:13:13.901Z,19.46
2018-05-24T12:14:13.829Z,19.50
2018-05-24T12:15:13.776Z,19.43
2018-05-24T12:16:13.757Z,19.43
2018-05-24T12:17:13.619Z,19.45
2018-05-24T12:18:13.548Z,19.42
2018-05-24T12:19:13.478Z,19.38
2018-05-24T12:20:13.409Z,19.46
2018-05-24T12:21:13.338Z,19.46
2018-05-24T12:22:13.266Z,19.36
2018-05-24T12:23:13.197Z,19.43
2018-05-24T12:24:13.127Z,19.45
2018-05-24T12:25:13.057Z,19.60
2018-05-24T12:26:12.986Z,19.68
2018-05-24T12:27:12.913Z,19.69
2018-05-24T12:28:12.845Z,19.73
2018-05-24T12:29:12.885Z,19.76
2018-05-24T12:30:12.704Z,19.73
2018-05-24T12:31:12.635Z,19.87
2018-05-24T12:32:12.564Z,19.73
2018-05-24T12:33:12.494Z,19.83
2018-05-24T12:34:12.423Z,19.91
2018-05-24T12:35:12.359Z,20.01
2018-05-24T12:36:12.284Z,20.06
2018-05-24T12:37:12.214Z,20.24
2018-05-24T12:38:12.143Z,20.30
2018-05-24T12:39:12.073Z,20.26
2018-05-24T12:40:12.004Z,20.42
2018-05-24T12:41:11.934Z,20.59
2018-05-24T12:42:11.864Z,20.64
2018-05-24T12:43:11.795Z,20.74
2018-05-24T12:44:11.725Z,20.84
2018-05-24T12:45:11.656Z,20.87
2018-05-24T12:46:11.586Z,20.80
2018-05-24T12:47:11.516Z,20.93
2018-05-24T12:48:11.452Z,21.06
2018-05-24T12:49:11.379Z,20.99
2018-05-24T12:50:11.309Z,20.89
2018-05-24T12:51:11.239Z,20.87